Central Valley, Washington
Current Conditions -  °F | °C
As of 12:15 AM on Tuesday 27 Jan 2015 (Local Time) from KPWT Reporting Station
Broken Clouds Broken Clouds  
Wind Chill: 44°   Ceiling: 1900
Heat Index: 48°   Visibility: 10mi
Dew Point: 48°   Wind: 9mph
Humidity: 100%   Direction: 170°S
Pressure: 30.01"   Gusts: 16mph
Location:  47.7571°N, 122.623°W
Report Text: KPWT 270815Z AUTO 17008G14KT 10SM BKN019 09/09 A3001 RMK AO1
Loading
Personal Weather Stations






























Interactive Weather Map New forecast layout! Learn more

10-Day Weather Forecast

Advertisements
Track Severe Weather on mobile